createdAt,value
2023-03-22T00:01:37.655Z,52.20
2023-03-22T00:04:24.549Z,52.29
2023-03-22T00:07:11.435Z,52.01
2023-03-22T00:09:58.223Z,52.81
2023-03-22T00:12:45.109Z,52.33
2023-03-22T00:15:32.399Z,52.34
2023-03-22T00:18:19.455Z,52.11
2023-03-22T00:21:13.728Z,52.62
2023-03-22T00:24:00.584Z,52.74
2023-03-22T00:26:47.526Z,52.54
2023-03-22T00:29:34.364Z,52.80
2023-03-22T00:32:21.233Z,52.92
2023-03-22T00:35:09.488Z,52.50
2023-03-22T00:37:56.368Z,52.80
2023-03-22T00:40:43.208Z,52.40
2023-03-22T00:43:30.200Z,53.02
2023-03-22T00:46:19.922Z,52.55
2023-03-22T00:49:06.830Z,52.88
2023-03-22T00:51:53.963Z,52.68
2023-03-22T00:54:40.978Z,52.94
2023-03-22T00:57:27.794Z,52.82
2023-03-22T01:00:16.385Z,52.62
2023-03-22T01:03:05.081Z,52.54
2023-03-22T01:05:55.553Z,52.58
2023-03-22T01:08:42.469Z,53.13
2023-03-22T01:11:29.307Z,53.31
2023-03-22T01:14:16.283Z,53.23
2023-03-22T01:17:03.559Z,52.96
2023-03-22T01:19:50.405Z,52.96
2023-03-22T01:22:37.364Z,53.03
2023-03-22T01:25:24.665Z,52.97
2023-03-22T01:28:11.537Z,53.46
2023-03-22T01:31:01.809Z,53.06
2023-03-22T01:33:48.761Z,53.02
2023-03-22T01:36:36.763Z,53.49
2023-03-22T01:39:23.622Z,53.41
2023-03-22T01:42:14.300Z,52.99
2023-03-22T01:45:30.416Z,53.10
2023-03-22T01:48:19.024Z,53.74
2023-03-22T01:51:26.384Z,53.63
2023-03-22T01:54:18.117Z,53.70
2023-03-22T01:57:04.959Z,53.72
2023-03-22T01:59:51.852Z,53.70
2023-03-22T02:02:38.885Z,53.68
2023-03-22T02:05:25.982Z,53.21
2023-03-22T02:08:15.147Z,53.11
2023-03-22T02:11:03.854Z,53.73
2023-03-22T02:14:12.537Z,53.58
2023-03-22T02:17:27.712Z,53.51
2023-03-22T02:20:49.702Z,53.67
2023-03-22T02:24:05.541Z,53.84
2023-03-22T02:27:16.305Z,54.04
2023-03-22T02:30:24.906Z,54.21
2023-03-22T02:33:11.730Z,53.93
2023-03-22T02:36:22.773Z,54.27
2023-03-22T02:39:16.532Z,53.86
2023-03-22T02:42:28.628Z,53.84
2023-03-22T02:45:23.425Z,54.05
2023-03-22T02:48:18.883Z,53.92
2023-03-22T02:51:11.820Z,53.72
2023-03-22T02:54:21.766Z,54.07
2023-03-22T02:57:15.716Z,53.91
2023-03-22T03:00:10.503Z,53.98
2023-03-22T03:03:00.229Z,53.92
2023-03-22T03:05:49.916Z,53.54
2023-03-22T03:08:37.880Z,54.04
2023-03-22T03:11:25.305Z,54.09
2023-03-22T03:14:25.991Z,54.19
2023-03-22T03:17:18.890Z,54.10
2023-03-22T03:20:24.719Z,54.42
2023-03-22T03:23:18.102Z,54.21
2023-03-22T03:26:28.737Z,54.17
2023-03-22T03:29:34.271Z,54.41
2023-03-22T03:32:31.572Z,53.95
2023-03-22T03:35:25.583Z,53.96
2023-03-22T03:38:17.533Z,54.04
2023-03-22T03:41:07.292Z,54.17
2023-03-22T03:43:56.133Z,54.38
2023-03-22T03:46:44.458Z,54.70
2023-03-22T03:49:31.304Z,53.88
2023-03-22T03:52:18.440Z,54.74
2023-03-22T03:55:06.204Z,54.51
2023-03-22T03:57:53.093Z,54.24
2023-03-22T04:00:40.335Z,54.67
2023-03-22T04:03:27.337Z,54.36
2023-03-22T04:06:14.405Z,54.69
2023-03-22T04:09:01.754Z,54.83
2023-03-22T04:11:48.637Z,54.72
2023-03-22T04:14:35.732Z,54.41
2023-03-22T04:17:23.033Z,54.37
2023-03-22T04:20:11.220Z,54.57
2023-03-22T04:23:00.264Z,54.42
2023-03-22T04:25:50.175Z,54.72
2023-03-22T04:28:37.090Z,54.67
2023-03-22T04:31:27.144Z,54.62
2023-03-22T04:34:14.059Z,54.19
2023-03-22T04:37:02.693Z,54.80
2023-03-22T04:39:49.610Z,54.13
2023-03-22T04:42:36.573Z,54.67
2023-03-22T04:45:24.028Z,54.29
2023-03-22T04:48:11.381Z,54.60
2023-03-22T04:50:58.351Z,54.46
2023-03-22T04:53:45.203Z,54.71
2023-03-22T04:56:32.315Z,54.51
2023-03-22T04:59:20.331Z,54.44
2023-03-22T05:02:07.276Z,54.91
2023-03-22T05:04:54.140Z,54.57
2023-03-22T05:07:41.544Z,54.70
2023-03-22T05:10:28.400Z,54.42
2023-03-22T05:13:15.410Z,54.62
2023-03-22T05:16:02.335Z,54.74
2023-03-22T05:18:50.057Z,54.65
2023-03-22T05:21:40.315Z,54.89
2023-03-22T05:24:27.668Z,54.63
2023-03-22T05:27:14.524Z,54.56
2023-03-22T05:30:02.233Z,54.61
2023-03-22T05:32:49.630Z,55.03
2023-03-22T05:35:39.263Z,54.96
2023-03-22T05:38:26.238Z,54.75
2023-03-22T05:41:13.760Z,54.84
2023-03-22T05:44:01.080Z,54.78
2023-03-22T05:46:48.017Z,54.71
2023-03-22T05:49:34.968Z,54.97
2023-03-22T05:52:21.858Z,54.56
2023-03-22T05:55:09.299Z,54.90
2023-03-22T05:57:56.633Z,54.98
2023-03-22T06:00:43.940Z,54.66
2023-03-22T06:03:31.276Z,54.83
2023-03-22T06:06:18.154Z,54.89
2023-03-22T06:09:16.242Z,54.67
2023-03-22T06:12:03.946Z,54.99
2023-03-22T06:14:50.823Z,54.67
2023-03-22T06:17:37.879Z,54.72
2023-03-22T06:20:25.678Z,54.79
2023-03-22T06:23:12.543Z,54.88
2023-03-22T06:25:59.596Z,54.40
2023-03-22T06:28:47.022Z,53.32
2023-03-22T06:31:33.866Z,53.67
2023-03-22T06:34:20.744Z,53.89
2023-03-22T06:37:07.558Z,53.73
2023-03-22T06:39:54.450Z,54.37
2023-03-22T06:42:41.321Z,54.12
2023-03-22T06:45:33.546Z,54.12
2023-03-22T06:48:20.675Z,54.65
2023-03-22T06:51:07.631Z,54.67
2023-03-22T06:53:54.564Z,54.73
2023-03-22T06:56:41.560Z,54.84
2023-03-22T06:59:28.471Z,55.15
2023-03-22T07:02:15.462Z,55.11
2023-03-22T07:05:02.356Z,55.06
2023-03-22T07:07:49.293Z,55.22
2023-03-22T07:10:36.146Z,55.35
2023-03-22T07:13:23.025Z,55.71
2023-03-22T07:16:10.321Z,55.16
2023-03-22T07:18:57.490Z,55.34
2023-03-22T07:21:44.459Z,55.35
2023-03-22T07:24:31.467Z,55.33
2023-03-22T07:27:19.156Z,55.69
2023-03-22T07:30:09.026Z,55.41
2023-03-22T07:32:56.573Z,55.33
2023-03-22T07:35:43.487Z,55.17
2023-03-22T07:38:30.521Z,54.81
2023-03-22T07:41:18.368Z,55.27
2023-03-22T07:44:17.381Z,55.04
2023-03-22T07:47:05.405Z,55.12
2023-03-22T07:49:52.483Z,54.98
2023-03-22T07:52:40.558Z,55.17
2023-03-22T07:55:27.437Z,55.19
2023-03-22T07:58:15.064Z,54.86
2023-03-22T08:01:09.087Z,54.68
2023-03-22T08:03:55.965Z,54.48
2023-03-22T08:06:42.847Z,54.66
2023-03-22T08:09:29.758Z,54.74
2023-03-22T08:12:16.843Z,54.52
2023-03-22T08:15:04.060Z,54.68
2023-03-22T08:17:50.972Z,54.50
2023-03-22T08:20:38.342Z,54.51
2023-03-22T08:23:40.536Z,54.76
2023-03-22T08:26:28.372Z,54.34
2023-03-22T08:29:16.109Z,54.77
2023-03-22T08:32:04.400Z,54.22
2023-03-22T08:34:52.793Z,54.38
2023-03-22T08:37:40.337Z,54.06
2023-03-22T08:40:27.376Z,53.79
2023-03-22T08:43:14.316Z,54.70
2023-03-22T08:46:01.171Z,54.10
2023-03-22T08:48:50.812Z,54.24
2023-03-22T08:51:39.415Z,53.77
2023-03-22T08:54:28.095Z,54.62
2023-03-22T08:57:16.524Z,54.08
2023-03-22T09:00:06.791Z,54.36
2023-03-22T09:02:53.652Z,54.02
2023-03-22T09:05:40.994Z,54.42
2023-03-22T09:08:29.187Z,54.51
2023-03-22T09:11:17.951Z,54.22
2023-03-22T09:14:04.995Z,54.21
2023-03-22T09:16:51.870Z,54.08
2023-03-22T09:19:38.753Z,54.40
2023-03-22T09:22:25.576Z,53.53
2023-03-22T09:25:13.290Z,54.38
2023-03-22T09:28:00.239Z,54.08
2023-03-22T09:30:47.159Z,53.86
2023-03-22T09:33:35.604Z,53.91
2023-03-22T09:36:22.459Z,54.30
2023-03-22T09:39:10.115Z,53.98
2023-03-22T09:42:02.612Z,53.57
2023-03-22T09:44:51.137Z,54.11
2023-03-22T09:47:45.064Z,54.35
2023-03-22T09:50:32.810Z,53.71
2023-03-22T09:53:20.590Z,54.15
2023-03-22T09:56:17.954Z,53.56
2023-03-22T09:59:23.060Z,53.80
2023-03-22T10:02:39.773Z,53.27
2023-03-22T10:05:37.929Z,53.84
2023-03-22T10:08:42.109Z,53.69
2023-03-22T10:11:35.066Z,53.22
2023-03-22T10:14:28.284Z,53.00
2023-03-22T10:17:18.453Z,53.26
2023-03-22T10:20:17.477Z,53.31
2023-03-22T10:23:06.721Z,53.69
2023-03-22T10:25:53.954Z,53.63
2023-03-22T10:28:44.043Z,52.81
2023-03-22T10:31:32.108Z,52.93
2023-03-22T10:34:22.568Z,53.26
2023-03-22T10:37:15.968Z,53.49
2023-03-22T10:40:08.415Z,52.66
2023-03-22T10:43:00.085Z,52.96
2023-03-22T10:45:47.164Z,53.15
2023-03-22T10:48:42.592Z,52.98
2023-03-22T10:51:34.657Z,52.46
2023-03-22T10:54:21.951Z,52.78
2023-03-22T10:57:08.809Z,52.12
2023-03-22T10:59:57.181Z,51.90
2023-03-22T11:02:51.510Z,52.42
2023-03-22T11:05:38.632Z,51.91
2023-03-22T11:08:25.623Z,51.73
2023-03-22T11:11:18.283Z,51.06
2023-03-22T11:14:05.025Z,50.73
2023-03-22T11:16:58.513Z,50.91
2023-03-22T11:20:02.206Z,50.39
2023-03-22T11:22:49.466Z,50.40
2023-03-22T11:25:38.872Z,50.50
2023-03-22T11:28:35.444Z,50.14
2023-03-22T11:31:24.645Z,50.36
2023-03-22T11:34:17.952Z,50.60
2023-03-22T11:37:08.013Z,50.52
2023-03-22T11:40:00.279Z,50.24
2023-03-22T11:42:47.929Z,50.32
2023-03-22T11:45:37.504Z,50.43
2023-03-22T11:48:27.539Z,50.11
2023-03-22T11:51:18.025Z,50.06
2023-03-22T11:54:08.770Z,50.08
2023-03-22T11:56:59.073Z,50.08
2023-03-22T11:59:49.017Z,50.07
2023-03-22T12:02:41.747Z,49.92
2023-03-22T12:05:31.552Z,50.01
2023-03-22T12:08:42.824Z,49.75
2023-03-22T12:11:34.379Z,49.89
2023-03-22T12:14:33.355Z,49.90
2023-03-22T12:17:37.632Z,49.52
2023-03-22T12:20:30.563Z,49.58
2023-03-22T12:23:23.223Z,49.67
2023-03-22T12:26:10.395Z,49.40
2023-03-22T12:29:00.704Z,49.41
2023-03-22T12:32:09.842Z,49.41
2023-03-22T12:35:05.424Z,49.62
2023-03-22T12:38:11.182Z,49.12
2023-03-22T12:41:01.785Z,49.55
2023-03-22T12:43:53.514Z,49.34
2023-03-22T12:46:49.350Z,49.04
2023-03-22T12:49:40.505Z,49.31
2023-03-22T12:52:45.626Z,49.12
2023-03-22T12:55:36.085Z,49.10
2023-03-22T12:58:24.286Z,49.07
2023-03-22T13:01:12.965Z,49.00
2023-03-22T13:03:59.948Z,48.75
2023-03-22T13:06:47.780Z,48.66
2023-03-22T13:09:41.924Z,48.73
2023-03-22T13:12:31.718Z,48.45
2023-03-22T13:15:41.747Z,48.49
2023-03-22T13:18:37.639Z,48.61
2023-03-22T13:21:29.876Z,48.46
2023-03-22T13:24:16.676Z,47.82
2023-03-22T13:27:07.385Z,47.95
2023-03-22T13:29:57.950Z,47.71
2023-03-22T13:32:52.575Z,47.95
2023-03-22T13:35:54.282Z,47.46
2023-03-22T13:38:42.923Z,47.87
2023-03-22T13:41:30.754Z,47.91
2023-03-22T13:44:31.115Z,47.57
2023-03-22T13:47:36.520Z,47.51
2023-03-22T13:50:28.472Z,47.73
2023-03-22T13:53:21.558Z,47.54
2023-03-22T13:56:12.569Z,47.58
2023-03-22T13:58:59.939Z,47.39
2023-03-22T14:01:51.567Z,47.37
2023-03-22T14:04:51.070Z,47.26
2023-03-22T14:07:47.211Z,47.60
2023-03-22T14:10:44.580Z,47.18
2023-03-22T14:13:46.499Z,47.02
2023-03-22T14:16:49.233Z,46.98
2023-03-22T14:19:36.344Z,47.61
